sensor_id;sensor_type;location;lat;lon;timestamp;temperature;humidity
1381;DHT22;684;48.342;10.096;2023-04-03T00:01:39;4.70;31.60
1381;DHT22;684;48.342;10.096;2023-04-03T00:04:06;4.60;31.60
1381;DHT22;684;48.342;10.096;2023-04-03T00:06:33;4.60;30.40
1381;DHT22;684;48.342;10.096;2023-04-03T00:09:00;4.60;30.30
1381;DHT22;684;48.342;10.096;2023-04-03T00:11:28;4.60;29.70
1381;DHT22;684;48.342;10.096;2023-04-03T00:13:55;4.60;28.80
1381;DHT22;684;48.342;10.096;2023-04-03T00:16:22;4.50;29.10
1381;DHT22;684;48.342;10.096;2023-04-03T00:18:48;4.40;29.10
1381;DHT22;684;48.342;10.096;2023-04-03T00:21:15;4.40;29.20
1381;DHT22;684;48.342;10.096;2023-04-03T00:23:42;4.50;29.00
1381;DHT22;684;48.342;10.096;2023-04-03T00:26:09;4.40;28.50
1381;DHT22;684;48.342;10.096;2023-04-03T00:28:37;4.50;28.00
1381;DHT22;684;48.342;10.096;2023-04-03T00:31:03;4.50;27.60
1381;DHT22;684;48.342;10.096;2023-04-03T00:33:30;4.40;27.20
1381;DHT22;684;48.342;10.096;2023-04-03T00:35:57;4.40;26.70
1381;DHT22;684;48.342;10.096;2023-04-03T00:38:24;4.50;26.30
1381;DHT22;684;48.342;10.096;2023-04-03T00:40:51;4.50;25.90
1381;DHT22;684;48.342;10.096;2023-04-03T00:43:19;4.40;26.00
1381;DHT22;684;48.342;10.096;2023-04-03T00:45:48;4.40;25.80
1381;DHT22;684;48.342;10.096;2023-04-03T00:48:18;4.40;25.20
1381;DHT22;684;48.342;10.096;2023-04-03T00:50:46;4.40;25.20
1381;DHT22;684;48.342;10.096;2023-04-03T00:53:17;4.40;25.40
1381;DHT22;684;48.342;10.096;2023-04-03T00:55:45;4.40;25.70
1381;DHT22;684;48.342;10.096;2023-04-03T00:58:15;4.40;25.30
1381;DHT22;684;48.342;10.096;2023-04-03T01:00:44;4.50;25.60
1381;DHT22;684;48.342;10.096;2023-04-03T01:03:14;4.50;24.70
1381;DHT22;684;48.342;10.096;2023-04-03T01:05:41;4.50;24.70
1381;DHT22;684;48.342;10.096;2023-04-03T01:08:08;4.50;22.80
1381;DHT22;684;48.342;10.096;2023-04-03T01:10:35;4.50;22.20
1381;DHT22;684;48.342;10.096;2023-04-03T01:13:01;4.50;22.00
1381;DHT22;684;48.342;10.096;2023-04-03T01:15:43;4.40;21.40
1381;DHT22;684;48.342;10.096;2023-04-03T01:18:10;4.40;21.80
1381;DHT22;684;48.342;10.096;2023-04-03T01:21:12;4.50;21.90
1381;DHT22;684;48.342;10.096;2023-04-03T01:23:53;4.50;22.70
1381;DHT22;684;48.342;10.096;2023-04-03T01:26:23;4.50;22.00
1381;DHT22;684;48.342;10.096;2023-04-03T01:28:53;4.40;21.60
1381;DHT22;684;48.342;10.096;2023-04-03T01:31:24;4.40;22.00
1381;DHT22;684;48.342;10.096;2023-04-03T01:33:53;4.40;21.90
1381;DHT22;684;48.342;10.096;2023-04-03T01:36:23;4.40;21.80
1381;DHT22;684;48.342;10.096;2023-04-03T01:38:51;4.50;22.50
1381;DHT22;684;48.342;10.096;2023-04-03T01:41:18;4.50;22.20
1381;DHT22;684;48.342;10.096;2023-04-03T01:43:46;4.60;22.10
1381;DHT22;684;48.342;10.096;2023-04-03T01:46:13;4.60;21.60
1381;DHT22;684;48.342;10.096;2023-04-03T01:48:40;4.60;21.90
1381;DHT22;684;48.342;10.096;2023-04-03T01:51:08;4.60;21.90
1381;DHT22;684;48.342;10.096;2023-04-03T01:53:35;4.60;22.10
1381;DHT22;684;48.342;10.096;2023-04-03T01:56:02;4.60;22.30
1381;DHT22;684;48.342;10.096;2023-04-03T01:58:28;4.70;22.40
1381;DHT22;684;48.342;10.096;2023-04-03T02:00:55;4.70;22.40
1381;DHT22;684;48.342;10.096;2023-04-03T02:03:22;4.70;22.40
1381;DHT22;684;48.342;10.096;2023-04-03T02:05:49;4.70;21.80
1381;DHT22;684;48.342;10.096;2023-04-03T02:08:17;4.60;21.60
1381;DHT22;684;48.342;10.096;2023-04-03T02:10:47;4.50;21.40
1381;DHT22;684;48.342;10.096;2023-04-03T02:13:14;4.50;20.90
1381;DHT22;684;48.342;10.096;2023-04-03T02:15:40;4.50;21.30
1381;DHT22;684;48.342;10.096;2023-04-03T02:18:08;4.40;21.20
1381;DHT22;684;48.342;10.096;2023-04-03T02:20:34;4.50;21.40
1381;DHT22;684;48.342;10.096;2023-04-03T02:23:01;4.50;21.40
1381;DHT22;684;48.342;10.096;2023-04-03T02:25:30;4.60;21.40
1381;DHT22;684;48.342;10.096;2023-04-03T02:27:57;4.60;21.50
1381;DHT22;684;48.342;10.096;2023-04-03T02:30:23;4.60;21.60
1381;DHT22;684;48.342;10.096;2023-04-03T02:32:50;4.70;21.90
1381;DHT22;684;48.342;10.096;2023-04-03T02:35:17;4.70;22.20
1381;DHT22;684;48.342;10.096;2023-04-03T02:37:44;4.80;22.40
1381;DHT22;684;48.342;10.096;2023-04-03T02:40:11;4.80;21.70
1381;DHT22;684;48.342;10.096;2023-04-03T02:42:39;4.80;21.70
1381;DHT22;684;48.342;10.096;2023-04-03T02:45:07;4.80;21.60
1381;DHT22;684;48.342;10.096;2023-04-03T02:47:33;4.90;21.60
1381;DHT22;684;48.342;10.096;2023-04-03T02:50:00;4.90;21.40
1381;DHT22;684;48.342;10.096;2023-04-03T02:52:27;4.80;21.20
1381;DHT22;684;48.342;10.096;2023-04-03T02:54:53;4.80;21.00
1381;DHT22;684;48.342;10.096;2023-04-03T02:57:20;4.80;21.20
1381;DHT22;684;48.342;10.096;2023-04-03T02:59:49;4.80;21.60
1381;DHT22;684;48.342;10.096;2023-04-03T03:02:16;4.80;21.80
1381;DHT22;684;48.342;10.096;2023-04-03T03:04:42;4.80;21.70
1381;DHT22;684;48.342;10.096;2023-04-03T03:07:09;4.90;22.00
1381;DHT22;684;48.342;10.096;2023-04-03T03:09:36;4.80;21.80
1381;DHT22;684;48.342;10.096;2023-04-03T03:12:03;4.80;21.80
1381;DHT22;684;48.342;10.096;2023-04-03T03:14:30;4.80;21.70
1381;DHT22;684;48.342;10.096;2023-04-03T03:16:58;4.90;22.00
1381;DHT22;684;48.342;10.096;2023-04-03T03:19:24;4.80;21.60
1381;DHT22;684;48.342;10.096;2023-04-03T03:21:51;4.80;21.40
1381;DHT22;684;48.342;10.096;2023-04-03T03:24:18;4.80;21.30
1381;DHT22;684;48.342;10.096;2023-04-03T03:26:44;4.80;21.40
1381;DHT22;684;48.342;10.096;2023-04-03T03:29:11;4.90;21.60
1381;DHT22;684;48.342;10.096;2023-04-03T03:31:38;4.90;21.70
1381;DHT22;684;48.342;10.096;2023-04-03T03:34:06;4.90;21.80
1381;DHT22;684;48.342;10.096;2023-04-03T03:36:33;5.00;21.30
1381;DHT22;684;48.342;10.096;2023-04-03T03:39:00;4.90;20.50
1381;DHT22;684;48.342;10.096;2023-04-03T03:41:27;5.00;19.90
1381;DHT22;684;48.342;10.096;2023-04-03T03:43:53;4.90;20.40
1381;DHT22;684;48.342;10.096;2023-04-03T03:46:20;4.90;19.60
1381;DHT22;684;48.342;10.096;2023-04-03T03:48:47;5.00;19.60
1381;DHT22;684;48.342;10.096;2023-04-03T03:51:15;5.00;19.60
1381;DHT22;684;48.342;10.096;2023-04-03T03:53:42;5.00;19.50
1381;DHT22;684;48.342;10.096;2023-04-03T03:56:09;5.00;19.60
1381;DHT22;684;48.342;10.096;2023-04-03T03:58:35;4.90;19.50
1381;DHT22;684;48.342;10.096;2023-04-03T04:01:03;4.90;19.50
1381;DHT22;684;48.342;10.096;2023-04-03T04:03:31;4.90;19.50
1381;DHT22;684;48.342;10.096;2023-04-03T04:05:57;4.90;19.50
1381;DHT22;684;48.342;10.096;2023-04-03T04:08:26;5.00;19.40
1381;DHT22;684;48.342;10.096;2023-04-03T04:10:53;4.90;19.40
1381;DHT22;684;48.342;10.096;2023-04-03T04:13:20;5.00;19.30
1381;DHT22;684;48.342;10.096;2023-04-03T04:15:47;5.00;19.20
1381;DHT22;684;48.342;10.096;2023-04-03T04:18:14;4.90;19.10
1381;DHT22;684;48.342;10.096;2023-04-03T04:20:41;4.90;19.00
1381;DHT22;684;48.342;10.096;2023-04-03T04:23:07;4.90;19.40
1381;DHT22;684;48.342;10.096;2023-04-03T04:25:35;5.00;19.20
1381;DHT22;684;48.342;10.096;2023-04-03T04:28:02;4.90;19.30
1381;DHT22;684;48.342;10.096;2023-04-03T04:30:29;4.90;19.30
1381;DHT22;684;48.342;10.096;2023-04-03T04:32:56;4.90;19.40
1381;DHT22;684;48.342;10.096;2023-04-03T04:35:22;4.90;19.30
1381;DHT22;684;48.342;10.096;2023-04-03T04:37:49;5.00;19.20
1381;DHT22;684;48.342;10.096;2023-04-03T04:40:16;5.00;19.00
1381;DHT22;684;48.342;10.096;2023-04-03T04:42:44;5.00;19.20
1381;DHT22;684;48.342;10.096;2023-04-03T04:45:11;5.00;19.40
1381;DHT22;684;48.342;10.096;2023-04-03T04:47:38;4.90;19.40
1381;DHT22;684;48.342;10.096;2023-04-03T04:50:06;4.90;19.50
1381;DHT22;684;48.342;10.096;2023-04-03T04:52:33;4.90;19.60
1381;DHT22;684;48.342;10.096;2023-04-03T04:54:59;4.90;19.60
1381;DHT22;684;48.342;10.096;2023-04-03T04:57:26;4.90;19.50
1381;DHT22;684;48.342;10.096;2023-04-03T04:59:54;4.90;19.60
1381;DHT22;684;48.342;10.096;2023-04-03T05:02:21;4.90;19.50
1381;DHT22;684;48.342;10.096;2023-04-03T05:04:48;4.90;19.70
1381;DHT22;684;48.342;10.096;2023-04-03T05:07:17;4.90;19.80
1381;DHT22;684;48.342;10.096;2023-04-03T05:09:44;4.90;19.70
1381;DHT22;684;48.342;10.096;2023-04-03T05:12:10;4.90;19.80
1381;DHT22;684;48.342;10.096;2023-04-03T05:14:37;4.90;20.00
1381;DHT22;684;48.342;10.096;2023-04-03T05:17:05;4.90;19.90
1381;DHT22;684;48.342;10.096;2023-04-03T05:19:32;4.90;19.90
1381;DHT22;684;48.342;10.096;2023-04-03T05:21:58;4.90;20.00
1381;DHT22;684;48.342;10.096;2023-04-03T05:24:25;4.90;20.00
1381;DHT22;684;48.342;10.096;2023-04-03T05:26:52;4.90;20.20
1381;DHT22;684;48.342;10.096;2023-04-03T05:29:20;4.90;20.00
1381;DHT22;684;48.342;10.096;2023-04-03T05:31:49;4.90;20.20
1381;DHT22;684;48.342;10.096;2023-04-03T05:34:17;4.90;20.30
1381;DHT22;684;48.342;10.096;2023-04-03T05:36:44;4.90;20.50
1381;DHT22;684;48.342;10.096;2023-04-03T05:39:10;4.90;20.70
1381;DHT22;684;48.342;10.096;2023-04-03T05:41:37;4.90;20.60
1381;DHT22;684;48.342;10.096;2023-04-03T05:44:04;4.90;20.70
1381;DHT22;684;48.342;10.096;2023-04-03T05:46:31;4.90;20.90
1381;DHT22;684;48.342;10.096;2023-04-03T05:48:58;5.00;20.90
1381;DHT22;684;48.342;10.096;2023-04-03T05:51:30;5.00;20.80
1381;DHT22;684;48.342;10.096;2023-04-03T05:54:03;5.00;20.40
1381;DHT22;684;48.342;10.096;2023-04-03T05:56:32;5.00;20.50
1381;DHT22;684;48.342;10.096;2023-04-03T05:58:59;5.00;20.50
1381;DHT22;684;48.342;10.096;2023-04-03T06:01:26;5.00;20.70
1381;DHT22;684;48.342;10.096;2023-04-03T06:03:53;5.10;20.90
1381;DHT22;684;48.342;10.096;2023-04-03T06:06:21;5.10;20.50
1381;DHT22;684;48.342;10.096;2023-04-03T06:08:49;5.10;20.70
1381;DHT22;684;48.342;10.096;2023-04-03T06:11:17;5.10;20.70
1381;DHT22;684;48.342;10.096;2023-04-03T06:13:43;5.10;20.70
1381;DHT22;684;48.342;10.096;2023-04-03T06:16:12;5.10;20.50
1381;DHT22;684;48.342;10.096;2023-04-03T06:18:40;5.10;20.40
1381;DHT22;684;48.342;10.096;2023-04-03T06:21:07;5.10;20.40
1381;DHT22;684;48.342;10.096;2023-04-03T06:23:34;5.20;20.50
1381;DHT22;684;48.342;10.096;2023-04-03T06:26:02;5.20;20.50
1381;DHT22;684;48.342;10.096;2023-04-03T06:28:31;5.20;21.10
1381;DHT22;684;48.342;10.096;2023-04-03T06:30:57;5.20;21.20
1381;DHT22;684;48.342;10.096;2023-04-03T06:33:24;5.20;21.10
1381;DHT22;684;48.342;10.096;2023-04-03T06:35:56;5.30;21.50
1381;DHT22;684;48.342;10.096;2023-04-03T06:38:24;5.30;21.40
1381;DHT22;684;48.342;10.096;2023-04-03T06:40:51;5.30;20.90
1381;DHT22;684;48.342;10.096;2023-04-03T06:43:19;5.30;20.40
1381;DHT22;684;48.342;10.096;2023-04-03T06:45:47;5.40;20.30
1381;DHT22;684;48.342;10.096;2023-04-03T06:48:14;5.30;20.30
1381;DHT22;684;48.342;10.096;2023-04-03T06:50:40;5.30;20.30
1381;DHT22;684;48.342;10.096;2023-04-03T06:53:07;5.30;20.70
1381;DHT22;684;48.342;10.096;2023-04-03T06:55:35;5.40;20.70
1381;DHT22;684;48.342;10.096;2023-04-03T06:58:02;5.40;20.70
1381;DHT22;684;48.342;10.096;2023-04-03T07:00:30;5.40;20.70
1381;DHT22;684;48.342;10.096;2023-04-03T07:02:57;5.40;20.60
1381;DHT22;684;48.342;10.096;2023-04-03T07:05:24;5.40;20.40
1381;DHT22;684;48.342;10.096;2023-04-03T07:07:51;5.40;20.70
1381;DHT22;684;48.342;10.096;2023-04-03T07:10:18;5.40;20.90
1381;DHT22;684;48.342;10.096;2023-04-03T07:12:45;5.40;20.90
1381;DHT22;684;48.342;10.096;2023-04-03T07:15:12;5.40;20.70
1381;DHT22;684;48.342;10.096;2023-04-03T07:17:41;5.40;21.10
1381;DHT22;684;48.342;10.096;2023-04-03T07:20:08;5.40;21.00
1381;DHT22;684;48.342;10.096;2023-04-03T07:22:36;5.40;20.90
1381;DHT22;684;48.342;10.096;2023-04-03T07:25:03;5.50;20.90
1381;DHT22;684;48.342;10.096;2023-04-03T07:27:32;5.60;20.90
1381;DHT22;684;48.342;10.096;2023-04-03T07:29:59;5.60;20.90
1381;DHT22;684;48.342;10.096;2023-04-03T07:32:26;5.60;20.80
1381;DHT22;684;48.342;10.096;2023-04-03T07:34:54;5.70;20.70
1381;DHT22;684;48.342;10.096;2023-04-03T07:37:21;5.80;20.60
1381;DHT22;684;48.342;10.096;2023-04-03T07:39:47;5.80;20.70
1381;DHT22;684;48.342;10.096;2023-04-03T07:42:14;5.80;20.50
1381;DHT22;684;48.342;10.096;2023-04-03T07:44:41;5.80;20.60
1381;DHT22;684;48.342;10.096;2023-04-03T07:47:08;5.80;20.80
1381;DHT22;684;48.342;10.096;2023-04-03T07:49:35;5.90;20.50
1381;DHT22;684;48.342;10.096;2023-04-03T07:52:06;5.90;20.60
1381;DHT22;684;48.342;10.096;2023-04-03T07:54:34;5.90;20.30
1381;DHT22;684;48.342;10.096;2023-04-03T07:57:01;6.10;20.60
1381;DHT22;684;48.342;10.096;2023-04-03T07:59:28;6.20;20.30
1381;DHT22;684;48.342;10.096;2023-04-03T08:01:55;6.30;19.40
1381;DHT22;684;48.342;10.096;2023-04-03T08:04:22;6.40;19.20
1381;DHT22;684;48.342;10.096;2023-04-03T08:06:49;6.50;19.00
1381;DHT22;684;48.342;10.096;2023-04-03T08:09:18;6.70;18.30
1381;DHT22;684;48.342;10.096;2023-04-03T08:11:45;6.70;18.30
1381;DHT22;684;48.342;10.096;2023-04-03T08:14:12;6.70;18.20
1381;DHT22;684;48.342;10.096;2023-04-03T08:16:42;6.90;18.40
1381;DHT22;684;48.342;10.096;2023-04-03T08:19:09;7.20;18.20
1381;DHT22;684;48.342;10.096;2023-04-03T08:21:36;7.60;17.80
1381;DHT22;684;48.342;10.096;2023-04-03T08:24:03;8.00;16.60
1381;DHT22;684;48.342;10.096;2023-04-03T08:26:32;8.40;16.00
1381;DHT22;684;48.342;10.096;2023-04-03T08:28:59;8.30;15.30
1381;DHT22;684;48.342;10.096;2023-04-03T08:31:26;8.20;15.50
1381;DHT22;684;48.342;10.096;2023-04-03T08:33:54;8.10;15.20
1381;DHT22;684;48.342;10.096;2023-04-03T08:36:22;8.00;15.20
1381;DHT22;684;48.342;10.096;2023-04-03T08:38:49;8.00;15.70
1381;DHT22;684;48.342;10.096;2023-04-03T08:41:20;7.90;15.60
1381;DHT22;684;48.342;10.096;2023-04-03T08:44:10;8.00;15.30
1381;DHT22;684;48.342;10.096;2023-04-03T08:46:49;8.10;14.80
1381;DHT22;684;48.342;10.096;2023-04-03T08:49:23;8.20;14.70
1381;DHT22;684;48.342;10.096;2023-04-03T08:51:51;8.20;14.60
1381;DHT22;684;48.342;10.096;2023-04-03T08:54:25;8.30;14.20
1381;DHT22;684;48.342;10.096;2023-04-03T08:56:53;8.30;14.20
1381;DHT22;684;48.342;10.096;2023-04-03T08:59:27;8.30;14.40
1381;DHT22;684;48.342;10.096;2023-04-03T09:01:56;8.10;14.50
1381;DHT22;684;48.342;10.096;2023-04-03T09:04:24;8.10;14.50
1381;DHT22;684;48.342;10.096;2023-04-03T09:06:55;8.20;14.50
1381;DHT22;684;48.342;10.096;2023-04-03T09:09:31;8.20;14.50
1381;DHT22;684;48.342;10.096;2023-04-03T09:12:06;8.10;14.10
1381;DHT22;684;48.342;10.096;2023-04-03T09:14:39;8.10;14.50
1381;DHT22;684;48.342;10.096;2023-04-03T09:17:14;8.20;14.10
1381;DHT22;684;48.342;10.096;2023-04-03T09:19:46;8.50;14.10
1381;DHT22;684;48.342;10.096;2023-04-03T09:22:18;8.90;13.10
1381;DHT22;684;48.342;10.096;2023-04-03T09:24:49;9.20;11.90
1381;DHT22;684;48.342;10.096;2023-04-03T09:27:18;9.50;12.10
1381;DHT22;684;48.342;10.096;2023-04-03T09:29:47;10.10;11.70
1381;DHT22;684;48.342;10.096;2023-04-03T09:32:21;10.60;10.10
1381;DHT22;684;48.342;10.096;2023-04-03T09:34:49;10.70;10.10
1381;DHT22;684;48.342;10.096;2023-04-03T09:37:34;10.60;9.80
1381;DHT22;684;48.342;10.096;2023-04-03T09:40:02;10.50;9.80
1381;DHT22;684;48.342;10.096;2023-04-03T09:42:30;10.30;9.70
1381;DHT22;684;48.342;10.096;2023-04-03T09:45:01;10.20;9.80
1381;DHT22;684;48.342;10.096;2023-04-03T09:47:30;10.10;9.70
1381;DHT22;684;48.342;10.096;2023-04-03T09:50:19;10.00;10.30
1381;DHT22;684;48.342;10.096;2023-04-03T09:52:47;10.00;10.40
1381;DHT22;684;48.342;10.096;2023-04-03T09:55:16;10.00;10.20
1381;DHT22;684;48.342;10.096;2023-04-03T09:57:44;10.00;10.00
1381;DHT22;684;48.342;10.096;2023-04-03T10:00:22;9.80;10.40
1381;DHT22;684;48.342;10.096;2023-04-03T10:02:51;9.70;10.90
1381;DHT22;684;48.342;10.096;2023-04-03T10:05:31;9.50;10.90
1381;DHT22;684;48.342;10.096;2023-04-03T10:08:09;9.40;11.20
1381;DHT22;684;48.342;10.096;2023-04-03T10:10:38;9.30;11.80
1381;DHT22;684;48.342;10.096;2023-04-03T10:13:06;9.30;11.20
1381;DHT22;684;48.342;10.096;2023-04-03T10:15:40;9.10;10.90
1381;DHT22;684;48.342;10.096;2023-04-03T10:18:20;8.90;11.20
1381;DHT22;684;48.342;10.096;2023-04-03T10:20:52;8.80;11.70
1381;DHT22;684;48.342;10.096;2023-04-03T10:23:24;8.70;12.20
1381;DHT22;684;48.342;10.096;2023-04-03T10:26:00;8.50;11.00
1381;DHT22;684;48.342;10.096;2023-04-03T10:28:33;8.40;11.90
1381;DHT22;684;48.342;10.096;2023-04-03T10:31:10;8.20;12.20
1381;DHT22;684;48.342;10.096;2023-04-03T10:33:48;7.90;12.90
1381;DHT22;684;48.342;10.096;2023-04-03T10:36:28;7.80;13.60
1381;DHT22;684;48.342;10.096;2023-04-03T10:39:10;7.80;13.40
1381;DHT22;684;48.342;10.096;2023-04-03T10:41:49;7.80;13.40
1381;DHT22;684;48.342;10.096;2023-04-03T10:44:24;7.80;14.00
1381;DHT22;684;48.342;10.096;2023-04-03T10:47:00;7.80;13.60
1381;DHT22;684;48.342;10.096;2023-04-03T10:49:40;7.70;13.70
1381;DHT22;684;48.342;10.096;2023-04-03T10:52:16;7.70;13.30
1381;DHT22;684;48.342;10.096;2023-04-03T10:54:46;7.70;13.20
1381;DHT22;684;48.342;10.096;2023-04-03T10:57:16;7.70;13.40
1381;DHT22;684;48.342;10.096;2023-04-03T10:59:45;7.70;12.30
1381;DHT22;684;48.342;10.096;2023-04-03T11:02:19;7.70;10.60
1381;DHT22;684;48.342;10.096;2023-04-03T11:04:53;7.60;10.40
1381;DHT22;684;48.342;10.096;2023-04-03T11:07:22;7.60;11.00
1381;DHT22;684;48.342;10.096;2023-04-03T11:09:52;7.50;11.40
1381;DHT22;684;48.342;10.096;2023-04-03T11:12:24;7.50;11.00
1381;DHT22;684;48.342;10.096;2023-04-03T11:14:55;7.50;12.30
1381;DHT22;684;48.342;10.096;2023-04-03T11:17:28;7.60;12.10
1381;DHT22;684;48.342;10.096;2023-04-03T11:20:01;7.60;12.30
1381;DHT22;684;48.342;10.096;2023-04-03T11:22:33;7.70;12.50
1381;DHT22;684;48.342;10.096;2023-04-03T11:25:04;7.70;12.00
1381;DHT22;684;48.342;10.096;2023-04-03T11:27:37;7.80;11.60
1381;DHT22;684;48.342;10.096;2023-04-03T11:30:07;7.80;11.30
1381;DHT22;684;48.342;10.096;2023-04-03T11:33:07;7.80;12.10
1381;DHT22;684;48.342;10.096;2023-04-03T11:35:43;7.70;11.70
1381;DHT22;684;48.342;10.096;2023-04-03T11:38:17;7.70;11.90
1381;DHT22;684;48.342;10.096;2023-04-03T11:40:47;7.80;11.90
1381;DHT22;684;48.342;10.096;2023-04-03T11:43:24;7.80;12.10
1381;DHT22;684;48.342;10.096;2023-04-03T11:45:56;7.80;12.30
1381;DHT22;684;48.342;10.096;2023-04-03T11:48:51;7.70;12.30
1381;DHT22;684;48.342;10.096;2023-04-03T11:51:51;7.70;12.60
1381;DHT22;684;48.342;10.096;2023-04-03T11:54:44;7.60;12.40
1381;DHT22;684;48.342;10.096;2023-04-03T11:57:50;7.50;12.10
1381;DHT22;684;48.342;10.096;2023-04-03T12:00:58;7.40;12.30
1381;DHT22;684;48.342;10.096;2023-04-03T12:03:58;7.50;13.00
1381;DHT22;684;48.342;10.096;2023-04-03T12:07:08;7.50;13.00
1381;DHT22;684;48.342;10.096;2023-04-03T12:10:17;7.60;12.60
1381;DHT22;684;48.342;10.096;2023-04-03T12:12:56;7.60;12.80
1381;DHT22;684;48.342;10.096;2023-04-03T12:18:43;7.70;11.50
1381;DHT22;684;48.342;10.096;2023-04-03T12:21:12;7.80;11.90
1381;DHT22;684;48.342;10.096;2023-04-03T12:23:58;7.90;11.80
1381;DHT22;684;48.342;10.096;2023-04-03T12:26:28;7.90;12.00
1381;DHT22;684;48.342;10.096;2023-04-03T12:28:57;7.90;11.70
1381;DHT22;684;48.342;10.096;2023-04-03T12:31:25;8.10;12.20
1381;DHT22;684;48.342;10.096;2023-04-03T12:34:16;8.30;12.20
1381;DHT22;684;48.342;10.096;2023-04-03T12:36:53;8.40;11.20
1381;DHT22;684;48.342;10.096;2023-04-03T12:39:47;8.50;11.00
1381;DHT22;684;48.342;10.096;2023-04-03T12:42:24;8.70;11.00
1381;DHT22;684;48.342;10.096;2023-04-03T12:45:01;8.80;10.50
1381;DHT22;684;48.342;10.096;2023-04-03T12:47:32;8.80;10.70
1381;DHT22;684;48.342;10.096;2023-04-03T12:50:03;8.80;10.90
1381;DHT22;684;48.342;10.096;2023-04-03T12:52:37;8.70;11.00
1381;DHT22;684;48.342;10.096;2023-04-03T12:55:13;8.70;10.20
1381;DHT22;684;48.342;10.096;2023-04-03T12:57:40;8.50;10.10
1381;DHT22;684;48.342;10.096;2023-04-03T13:00:29;8.20;9.80
1381;DHT22;684;48.342;10.096;2023-04-03T13:02:58;8.10;10.60
1381;DHT22;684;48.342;10.096;2023-04-03T13:05:25;8.10;10.80
1381;DHT22;684;48.342;10.096;2023-04-03T13:07:58;8.10;11.30
1381;DHT22;684;48.342;10.096;2023-04-03T13:10:25;8.00;10.90
1381;DHT22;684;48.342;10.096;2023-04-03T13:12:54;7.80;11.30
1381;DHT22;684;48.342;10.096;2023-04-03T13:15:23;7.80;11.70
1381;DHT22;684;48.342;10.096;2023-04-03T13:17:50;7.90;12.10
1381;DHT22;684;48.342;10.096;2023-04-03T13:20:21;8.00;12.20
1381;DHT22;684;48.342;10.096;2023-04-03T13:22:55;8.10;11.80
1381;DHT22;684;48.342;10.096;2023-04-03T13:25:25;8.30;11.00
1381;DHT22;684;48.342;10.096;2023-04-03T13:27:53;8.40;10.90
1381;DHT22;684;48.342;10.096;2023-04-03T13:30:25;8.40;10.70
1381;DHT22;684;48.342;10.096;2023-04-03T13:32:53;8.40;10.80
1381;DHT22;684;48.342;10.096;2023-04-03T13:35:32;8.30;10.80
1381;DHT22;684;48.342;10.096;2023-04-03T13:38:04;8.10;11.20
1381;DHT22;684;48.342;10.096;2023-04-03T13:40:31;8.00;11.70
1381;DHT22;684;48.342;10.096;2023-04-03T13:43:01;7.90;12.40
1381;DHT22;684;48.342;10.096;2023-04-03T13:45:29;7.80;12.70
1381;DHT22;684;48.342;10.096;2023-04-03T13:48:09;7.90;12.80
1381;DHT22;684;48.342;10.096;2023-04-03T13:50:55;8.00;12.70
1381;DHT22;684;48.342;10.096;2023-04-03T13:53:25;8.20;12.50
1381;DHT22;684;48.342;10.096;2023-04-03T13:55:56;8.30;11.80
1381;DHT22;684;48.342;10.096;2023-04-03T13:58:25;8.40;11.40
1381;DHT22;684;48.342;10.096;2023-04-03T14:00:54;8.40;10.70
1381;DHT22;684;48.342;10.096;2023-04-03T14:03:23;8.40;10.90
1381;DHT22;684;48.342;10.096;2023-04-03T14:05:50;8.60;11.50
1381;DHT22;684;48.342;10.096;2023-04-03T14:08:17;8.70;10.80
1381;DHT22;684;48.342;10.096;2023-04-03T14:10:47;8.80;9.60
1381;DHT22;684;48.342;10.096;2023-04-03T14:13:16;8.90;8.80
1381;DHT22;684;48.342;10.096;2023-04-03T14:15:44;9.00;8.10
1381;DHT22;684;48.342;10.096;2023-04-03T14:18:12;9.00;8.20
1381;DHT22;684;48.342;10.096;2023-04-03T14:20:40;9.00;8.10
1381;DHT22;684;48.342;10.096;2023-04-03T14:23:07;9.00;8.50
1381;DHT22;684;48.342;10.096;2023-04-03T14:25:34;9.00;8.20
1381;DHT22;684;48.342;10.096;2023-04-03T14:28:14;9.00;7.10
1381;DHT22;684;48.342;10.096;2023-04-03T14:30:41;8.90;7.60
1381;DHT22;684;48.342;10.096;2023-04-03T14:33:11;8.70;7.30
1381;DHT22;684;48.342;10.096;2023-04-03T14:35:39;8.60;7.20
1381;DHT22;684;48.342;10.096;2023-04-03T14:38:20;8.60;7.50
1381;DHT22;684;48.342;10.096;2023-04-03T14:40:47;8.50;7.60
1381;DHT22;684;48.342;10.096;2023-04-03T14:43:15;8.50;7.70
1381;DHT22;684;48.342;10.096;2023-04-03T14:45:43;8.50;8.10
1381;DHT22;684;48.342;10.096;2023-04-03T14:48:11;8.60;8.60
1381;DHT22;684;48.342;10.096;2023-04-03T14:50:42;8.60;8.00
1381;DHT22;684;48.342;10.096;2023-04-03T14:53:11;8.60;8.60
1381;DHT22;684;48.342;10.096;2023-04-03T14:55:38;8.60;8.20
1381;DHT22;684;48.342;10.096;2023-04-03T14:58:05;8.70;8.40
1381;DHT22;684;48.342;10.096;2023-04-03T15:00:33;8.80;8.40
1381;DHT22;684;48.342;10.096;2023-04-03T15:02:59;8.80;8.70
1381;DHT22;684;48.342;10.096;2023-04-03T15:05:26;8.80;8.60
1381;DHT22;684;48.342;10.096;2023-04-03T15:07:55;8.80;8.10
1381;DHT22;684;48.342;10.096;2023-04-03T15:10:24;8.80;7.80
1381;DHT22;684;48.342;10.096;2023-04-03T15:12:51;8.70;7.90
1381;DHT22;684;48.342;10.096;2023-04-03T15:15:20;8.70;6.90
1381;DHT22;684;48.342;10.096;2023-04-03T15:17:52;8.80;7.00
1381;DHT22;684;48.342;10.096;2023-04-03T15:20:22;8.80;7.00
1381;DHT22;684;48.342;10.096;2023-04-03T15:22:50;8.80;6.80
1381;DHT22;684;48.342;10.096;2023-04-03T15:25:17;8.70;6.10
1381;DHT22;684;48.342;10.096;2023-04-03T15:27:44;8.70;5.60
1381;DHT22;684;48.342;10.096;2023-04-03T15:30:14;8.60;5.50
1381;DHT22;684;48.342;10.096;2023-04-03T15:32:42;8.60;5.70
1381;DHT22;684;48.342;10.096;2023-04-03T15:35:10;8.50;6.20
1381;DHT22;684;48.342;10.096;2023-04-03T15:37:37;8.30;6.10
1381;DHT22;684;48.342;10.096;2023-04-03T15:40:04;8.20;6.10
1381;DHT22;684;48.342;10.096;2023-04-03T15:42:31;8.10;6.20
1381;DHT22;684;48.342;10.096;2023-04-03T15:44:58;8.00;5.90
1381;DHT22;684;48.342;10.096;2023-04-03T15:47:25;7.90;5.90
1381;DHT22;684;48.342;10.096;2023-04-03T15:49:53;7.80;6.40
1381;DHT22;684;48.342;10.096;2023-04-03T15:52:22;7.90;6.60
1381;DHT22;684;48.342;10.096;2023-04-03T15:54:49;7.90;6.90
1381;DHT22;684;48.342;10.096;2023-04-03T15:57:15;7.90;7.70
1381;DHT22;684;48.342;10.096;2023-04-03T15:59:42;7.90;8.20
1381;DHT22;684;48.342;10.096;2023-04-03T16:02:10;8.00;7.60
1381;DHT22;684;48.342;10.096;2023-04-03T16:04:39;7.90;6.90
1381;DHT22;684;48.342;10.096;2023-04-03T16:07:06;7.90;6.30
1381;DHT22;684;48.342;10.096;2023-04-03T16:09:35;7.80;6.30
1381;DHT22;684;48.342;10.096;2023-04-03T16:12:02;7.70;6.80
1381;DHT22;684;48.342;10.096;2023-04-03T16:14:29;7.60;6.10
1381;DHT22;684;48.342;10.096;2023-04-03T16:16:56;7.60;5.80
1381;DHT22;684;48.342;10.096;2023-04-03T16:19:23;7.50;6.40
1381;DHT22;684;48.342;10.096;2023-04-03T16:21:50;7.40;7.10
1381;DHT22;684;48.342;10.096;2023-04-03T16:24:17;7.40;7.40
1381;DHT22;684;48.342;10.096;2023-04-03T16:26:45;7.40;7.20
1381;DHT22;684;48.342;10.096;2023-04-03T16:29:12;7.40;7.10
1381;DHT22;684;48.342;10.096;2023-04-03T16:31:38;7.40;6.70
1381;DHT22;684;48.342;10.096;2023-04-03T16:34:05;7.40;6.30
1381;DHT22;684;48.342;10.096;2023-04-03T16:36:32;7.40;6.50
1381;DHT22;684;48.342;10.096;2023-04-03T16:38:59;7.30;6.70
1381;DHT22;684;48.342;10.096;2023-04-03T16:41:25;7.20;6.30